Cicero, New York
Current Conditions -  °F | °C
As of 10:54 PM on Tuesday 21 Oct 2014 (Local Time) from KSYR Reporting Station
Overcast Overcast  
Wind Chill: 51°   Ceiling: 2000
Heat Index: 51°   Visibility: 8mi
Dew Point: 49°   Wind: 7mph
Humidity: 94%   Direction: 10°N
Pressure: 30.01"   Gusts: NA
Location:  43.18°N, 76.12°W
Report Text: KSYR 220254Z 01006KT 8SM FEW007 OVC020 11/10 A3001 RMK RAE13DZB13E39 SLP160 T01060097 51010
Loading
Personal Weather Stations






























Interactive Weather Map
Tropical Storm Tracking
New forecast layout! Learn more

10-Day Weather Forecast

Advertisements
Track Severe Weather on mobile